East Patchogue, New York
Current Conditions -  °F | °C
As of 7:56 AM on Monday 22 Dec 2014 (Local Time) from KISP Reporting Station
Overcast Overcast  
Wind Chill: 33°   Ceiling: 700
Heat Index: 39°   Visibility: 10mi
Dew Point: 35°   Wind: 9mph
Humidity: 86%   Direction: 60°ENE
Pressure: 30.3"   Gusts: NA
Location:  40.7718°N, 72.9949°W
Report Text: KISP 221256Z 06008KT 10SM BKN007 OVC039 04/02 A3030 RMK AO2 SLP262 BKN V SCT T00390017
Loading
Personal Weather Stations






























Interactive Weather Map New forecast layout! Learn more

10-Day Weather Forecast

Advertisements
Track Severe Weather on mobile